Time;durP1;ratioP1;P1;durP2;ratioP2;P2;SDS_P1;SDS_P2;PMS_P1;PMS_P2;Temp;Humidity;BMP_temperature;BMP_pressure;BME280_temperature;BME280_humidity;BME280_pressure;Samples;Min_cycle;Max_cycle;Signal;HPM_P1;HPM_P2
2022/12/14 00:00:41;;;;;;;13.00;8.13;;;2.40;50.00;;;;;;5021728;28;20448;-53
2022/12/14 00:03:07;;;;;;;12.80;8.97;;;2.20;50.60;;;;;;5035874;28;20863;-54
2022/12/14 00:05:34;;;;;;;10.90;7.90;;;2.30;50.70;;;;;;5024938;28;20198;-55
2022/12/14 00:08:00;;;;;;;11.53;8.00;;;2.40;50.50;;;;;;5024076;28;20493;-51
2022/12/14 00:10:26;;;;;;;10.83;8.20;;;2.50;50.60;;;;;;5021171;28;20441;-54
2022/12/14 00:12:51;;;;;;;10.27;7.40;;;2.40;50.20;;;;;;5022576;28;20492;-54
2022/12/14 00:15:17;;;;;;;12.30;7.70;;;2.20;50.70;;;;;;5024819;28;20444;-52
2022/12/14 00:17:42;;;;;;;11.43;7.67;;;2.30;50.60;;;;;;5025266;28;20224;-53
2022/12/14 00:20:08;;;;;;;11.23;8.20;;;2.20;51.00;;;;;;5006617;28;22962;-50
2022/12/14 00:22:34;;;;;;;13.23;7.83;;;2.20;51.10;;;;;;5006379;28;20200;-54
2022/12/14 00:25:01;;;;;;;15.50;8.13;;;2.40;51.00;;;;;;5020597;28;20562;-52
2022/12/14 00:27:26;;;;;;;11.63;7.60;;;2.60;50.70;;;;;;5021961;28;20675;-53
2022/12/14 00:29:52;;;;;;;11.00;8.40;;;2.90;50.20;;;;;;5025328;28;20463;-53
2022/12/14 00:32:18;;;;;;;9.77;7.70;;;2.80;49.90;;;;;;5025268;28;20194;-54
2022/12/14 00:34:43;;;;;;;10.60;8.33;;;2.80;49.70;;;;;;5028333;28;20239;-53
2022/12/14 00:37:09;;;;;;;9.77;7.63;;;2.70;49.70;;;;;;5026462;28;20228;-52
2022/12/14 00:39:34;;;;;;;19.03;11.30;;;2.60;50.00;;;;;;5024807;28;20209;-51
2022/12/14 00:42:00;;;;;;;14.93;9.13;;;2.60;50.20;;;;;;5018230;28;20251;-50
2022/12/14 00:44:25;;;;;;;13.10;8.07;;;2.70;49.90;;;;;;5026016;28;20201;-53
2022/12/14 00:46:51;;;;;;;12.23;8.10;;;2.60;50.00;;;;;;5028137;28;20190;-51
2022/12/14 00:49:16;;;;;;;13.20;8.90;;;2.70;49.90;;;;;;5027511;28;20276;-52
2022/12/14 00:51:42;;;;;;;11.27;7.60;;;2.50;49.80;;;;;;5027606;28;20197;-51
2022/12/14 00:54:07;;;;;;;14.93;9.07;;;2.30;50.30;;;;;;5026574;28;20240;-52
2022/12/14 00:56:33;;;;;;;11.70;8.47;;;2.30;50.80;;;;;;5024246;28;20197;-54
2022/12/14 00:58:59;;;;;;;11.63;8.23;;;2.40;50.60;;;;;;5019802;28;20185;-51
2022/12/14 01:01:24;;;;;;;12.70;8.47;;;2.20;50.80;;;;;;5021867;28;20244;-51
2022/12/14 01:04:15;;;;;;;11.27;7.90;;;2.20;51.20;;;;;;5024675;28;20197;-50
2022/12/14 01:06:36;;;;;;;11.10;7.50;;;2.40;51.20;;;;;;5018525;28;20186;-52
2022/12/14 01:09:01;;;;;;;12.30;8.67;;;2.70;50.70;;;;;;5024688;28;20914;-51
2022/12/14 01:11:27;;;;;;;11.57;8.63;;;2.70;50.20;;;;;;5024578;28;20240;-54
2022/12/14 01:13:54;;;;;;;12.70;8.37;;;2.70;50.60;;;;;;5029592;28;20221;-50
2022/12/14 01:16:20;;;;;;;11.37;9.17;;;2.70;50.90;;;;;;5020633;28;22361;-53
2022/12/14 01:18:46;;;;;;;13.60;8.90;;;2.50;51.20;;;;;;5024063;28;20451;-51
2022/12/14 01:21:13;;;;;;;10.53;7.87;;;2.40;51.60;;;;;;5028783;28;21016;-51
2022/12/14 01:23:40;;;;;;;11.50;8.30;;;2.30;51.70;;;;;;5023370;28;20189;-52
2022/12/14 01:26:05;;;;;;;12.93;9.20;;;2.30;52.10;;;;;;5024464;28;20439;-51
2022/12/14 01:28:33;;;;;;;12.47;8.63;;;2.30;52.00;;;;;;5024181;28;20467;-50
2022/12/14 01:31:03;;;;;;;10.77;9.00;;;2.30;52.50;;;;;;5030749;28;20185;-50
2022/12/14 01:33:29;;;;;;;14.03;9.20;;;2.50;52.40;;;;;;5029272;28;20487;-52
2022/12/14 01:35:54;;;;;;;12.80;9.23;;;2.70;51.90;;;;;;5024882;28;20451;-50
2022/12/14 01:38:20;;;;;;;11.53;8.80;;;2.50;51.50;;;;;;5025496;28;20205;-54
2022/12/14 01:40:45;;;;;;;11.70;8.20;;;2.50;52.10;;;;;;5019432;28;20193;-52
2022/12/14 01:43:14;;;;;;;13.07;9.87;;;2.60;52.30;;;;;;5022284;28;20668;-51
2022/12/14 01:45:41;;;;;;;11.80;8.27;;;2.60;51.90;;;;;;5018507;28;20527;-54
2022/12/14 01:48:10;;;;;;;14.20;9.53;;;2.70;51.90;;;;;;5024590;28;20436;-54
2022/12/14 01:50:42;;;;;;;12.87;9.40;;;2.70;51.90;;;;;;5022264;28;20469;-51
2022/12/14 01:53:14;;;;;;;15.10;9.47;;;2.50;51.80;;;;;;5028857;28;20495;-54
2022/12/14 01:55:42;;;;;;;12.80;9.63;;;2.70;52.30;;;;;;5026567;28;20436;-50
2022/12/14 01:58:20;;;;;;;12.70;9.73;;;2.60;52.40;;;;;;5025772;28;20440;-54
2022/12/14 02:00:45;;;;;;;14.23;9.27;;;2.70;52.40;;;;;;5020449;28;20447;-53
2022/12/14 02:03:31;;;;;;;14.20;8.90;;;2.50;52.40;;;;;;5021337;28;20439;-53
2022/12/14 02:06:12;;;;;;;14.30;10.43;;;2.40;53.00;;;;;;5024282;28;20805;-50
2022/12/14 02:08:39;;;;;;;13.23;9.50;;;2.20;53.50;;;;;;5029325;28;20443;-52
2022/12/14 02:11:05;;;;;;;14.77;10.10;;;2.00;54.00;;;;;;5024657;28;20846;-51
2022/12/14 02:13:37;;;;;;;13.33;9.17;;;2.10;54.30;;;;;;5021635;28;20488;-51
2022/12/14 02:16:03;;;;;;;12.63;9.90;;;2.10;54.20;;;;;;5020730;28;20451;-53
2022/12/14 02:18:30;;;;;;;15.50;10.03;;;2.60;54.00;;;;;;5022296;28;20440;-50
2022/12/14 02:21:21;;;;;;;13.60;9.67;;;2.60;53.00;;;;;;5022699;28;20444;-51
2022/12/14 02:24:10;;;;;;;12.43;8.77;;;2.30;53.20;;;;;;5024676;28;20448;-51
2022/12/14 02:26:58;;;;;;;13.57;9.27;;;2.40;53.60;;;;;;5028587;28;20450;-51
2022/12/14 02:29:37;;;;;;;18.60;10.40;;;2.60;53.50;;;;;;5025699;28;22176;-51
2022/12/14 02:32:09;;;;;;;12.93;10.50;;;2.60;53.10;;;;;;5022030;28;20459;-50
2022/12/14 02:34:51;;;;;;;14.03;9.70;;;2.60;53.00;;;;;;5022172;28;20900;-49
2022/12/14 02:37:31;;;;;;;12.67;9.57;;;2.60;53.20;;;;;;5024293;28;20455;-50
2022/12/14 02:40:23;;;;;;;15.20;11.20;;;2.40;53.00;;;;;;5025429;28;20482;-53
2022/12/14 02:43:07;;;;;;;14.40;10.93;;;2.30;53.80;;;;;;5017660;28;20965;-53
2022/12/14 02:45:49;;;;;;;14.90;10.30;;;2.20;53.90;;;;;;5025401;28;20458;-51
2022/12/14 02:48:22;;;;;;;14.37;9.83;;;2.30;54.10;;;;;;5021988;28;20458;-50
2022/12/14 02:51:21;;;;;;;14.90;10.90;;;2.30;53.90;;;;;;5025872;28;20440;-53
2022/12/14 02:54:08;;;;;;;15.73;10.30;;;2.50;53.70;;;;;;5022607;28;21113;-50
2022/12/14 02:56:46;;;;;;;16.40;11.20;;;2.40;53.30;;;;;;5022685;28;20483;-51
2022/12/14 02:59:15;;;;;;;14.80;9.20;;;2.50;53.40;;;;;;5027598;28;20460;-50
2022/12/14 03:01:42;;;;;;;11.33;9.33;;;2.50;53.40;;;;;;5024617;28;20501;-51
2022/12/14 03:04:08;;;;;;;13.47;10.00;;;2.40;53.40;;;;;;5031136;28;20443;-50
2022/12/14 03:06:33;;;;;;;13.40;9.43;;;2.40;53.40;;;;;;5028233;28;20946;-52
2022/12/14 03:09:07;;;;;;;13.83;10.00;;;2.60;53.80;;;;;;5028506;28;20193;-51
2022/12/14 03:11:59;;;;;;;13.47;10.50;;;2.60;53.60;;;;;;5025931;28;20568;-54
2022/12/14 03:14:34;;;;;;;14.57;10.53;;;2.90;52.90;;;;;;5027483;28;20480;-54
2022/12/14 03:17:08;;;;;;;15.13;11.03;;;2.70;52.50;;;;;;5024117;28;20555;-53
2022/12/14 03:19:42;;;;;;;16.10;11.80;;;2.50;53.10;;;;;;5027652;28;20531;-54
2022/12/14 03:22:14;;;;;;;14.47;10.23;;;2.50;53.70;;;;;;5021905;28;20447;-51
2022/12/14 03:24:48;;;;;;;14.93;9.33;;;2.10;53.70;;;;;;5026216;28;20512;-53
2022/12/14 03:27:16;;;;;;;13.17;10.40;;;2.40;54.10;;;;;;5028570;28;20443;-49
2022/12/14 03:30:23;;;;;;;15.97;11.10;;;2.50;53.80;;;;;;5032916;28;20971;-52
2022/12/14 03:32:56;;;;;;;15.30;11.80;;;2.50;53.70;;;;;;5004235;28;20452;-53
2022/12/14 03:35:29;;;;;;;16.83;10.03;;;2.50;53.90;;;;;;5030722;28;20437;-51
2022/12/14 03:38:12;;;;;;;17.90;11.90;;;2.30;53.90;;;;;;5027278;28;20440;-53
2022/12/14 03:41:07;;;;;;;14.07;10.27;;;2.20;54.10;;;;;;5022586;28;20462;-50
2022/12/14 03:43:40;;;;;;;15.40;12.00;;;2.40;54.20;;;;;;4995042;28;20448;-53
2022/12/14 03:46:13;;;;;;;14.50;10.70;;;2.30;54.30;;;;;;5030680;28;20483;-51
2022/12/14 03:48:53;;;;;;;15.27;11.10;;;2.10;54.70;;;;;;5032325;28;20535;-51
2022/12/14 03:51:36;;;;;;;15.47;11.57;;;2.00;54.90;;;;;;5031680;28;20440;-49
2022/12/14 03:54:12;;;;;;;13.83;10.43;;;2.20;55.00;;;;;;5025001;28;20623;-51
2022/12/14 03:56:41;;;;;;;18.20;10.93;;;2.30;54.80;;;;;;5028161;28;21044;-51
2022/12/14 03:59:30;;;;;;;21.23;12.00;;;2.50;55.00;;;;;;5022609;28;20462;-51
2022/12/14 04:02:03;;;;;;;17.10;11.90;;;2.40;54.90;;;;;;5017761;28;20858;-50
2022/12/14 04:04:28;;;;;;;16.97;11.53;;;2.50;55.10;;;;;;5030477;28;20481;-51
2022/12/14 04:07:06;;;;;;;16.73;11.60;;;2.40;55.40;;;;;;5029555;28;20478;-50
2022/12/14 04:09:51;;;;;;;17.63;12.20;;;2.30;55.60;;;;;;5017269;28;20218;-52
2022/12/14 04:21:30;;;;;;;18.73;12.20;;;2.20;56.10;;;;;;5031593;28;20478;-51
2022/12/14 04:26:54;;;;;;;19.87;12.47;;;2.00;57.00;;;;;;5032372;28;20820;-52
2022/12/14 04:32:38;;;;;;;18.63;12.87;;;2.10;57.20;;;;;;5019995;28;20506;-51
2022/12/14 04:35:19;;;;;;;16.57;11.77;;;1.90;57.30;;;;;;5033418;28;20951;-50
2022/12/14 04:37:51;;;;;;;18.10;12.90;;;2.20;57.50;;;;;;5031072;28;20454;-54
2022/12/14 04:40:39;;;;;;;15.60;12.73;;;2.30;57.10;;;;;;5029839;28;20444;-50
2022/12/14 04:43:10;;;;;;;19.93;14.13;;;2.50;56.90;;;;;;5024411;28;20590;-53
2022/12/14 04:45:46;;;;;;;17.30;11.80;;;2.60;56.50;;;;;;5032296;28;20844;-50
2022/12/14 04:48:17;;;;;;;18.73;13.03;;;2.70;56.40;;;;;;5030611;28;20451;-52
2022/12/14 04:50:49;;;;;;;16.90;12.80;;;2.70;56.30;;;;;;5029350;28;20478;-54
2022/12/14 04:53:25;;;;;;;17.27;12.70;;;2.50;56.40;;;;;;5028403;28;20494;-51
2022/12/14 04:56:00;;;;;;;17.20;12.60;;;2.60;56.90;;;;;;5025402;28;20819;-51
2022/12/14 04:58:28;;;;;;;18.63;13.60;;;2.60;56.50;;;;;;5029842;28;20520;-51
2022/12/14 05:01:12;;;;;;;19.10;12.77;;;2.80;56.30;;;;;;5021159;28;20448;-53
2022/12/14 05:04:01;;;;;;;17.63;13.03;;;2.90;56.80;;;;;;5015329;28;20767;-50
2022/12/14 05:06:46;;;;;;;18.03;12.73;;;2.50;56.30;;;;;;5020771;28;20449;-51
2022/12/14 05:09:38;;;;;;;16.40;12.47;;;2.60;56.70;;;;;;5025838;28;20462;-50
2022/12/14 05:12:25;;;;;;;17.77;13.70;;;2.50;56.40;;;;;;5015350;28;22200;-50
2022/12/14 05:15:05;;;;;;;18.00;12.90;;;2.60;56.50;;;;;;5028025;28;20491;-52
2022/12/14 05:17:37;;;;;;;21.37;13.40;;;2.90;56.30;;;;;;5022735;28;20538;-54
2022/12/14 05:20:05;;;;;;;18.13;14.00;;;2.70;55.90;;;;;;5020148;28;20429;-51
2022/12/14 05:22:30;;;;;;;19.43;12.57;;;2.60;55.80;;;;;;5018011;28;20440;-52
2022/12/14 05:24:56;;;;;;;18.70;13.10;;;2.40;56.40;;;;;;5019486;28;20444;-53
2022/12/14 05:27:22;;;;;;;22.37;14.30;;;2.40;56.70;;;;;;5018960;28;20617;-55
2022/12/14 05:29:48;;;;;;;19.70;14.00;;;2.80;56.70;;;;;;5028547;28;20482;-53
2022/12/14 05:32:13;;;;;;;21.40;14.10;;;2.90;56.10;;;;;;5023004;28;20185;-54
2022/12/14 05:34:39;;;;;;;24.50;14.50;;;3.00;55.70;;;;;;5028985;28;20708;-54
2022/12/14 05:37:05;;;;;;;19.00;14.00;;;2.80;55.40;;;;;;5029966;28;20189;-50
2022/12/14 05:39:30;;;;;;;23.03;14.17;;;2.90;55.60;;;;;;5026525;28;20852;-53
2022/12/14 05:41:56;;;;;;;21.30;14.27;;;3.20;55.50;;;;;;5029579;28;20581;-54
2022/12/14 05:44:22;;;;;;;20.90;13.10;;;3.30;55.00;;;;;;5028405;28;20247;-55
2022/12/14 05:46:47;;;;;;;15.97;12.07;;;2.90;55.10;;;;;;5028320;28;20279;-52
2022/12/14 05:49:13;;;;;;;18.90;12.80;;;2.80;55.40;;;;;;5025574;28;20190;-54
2022/12/14 05:51:39;;;;;;;19.50;13.57;;;2.90;55.80;;;;;;5024151;28;20217;-53
2022/12/14 05:54:04;;;;;;;19.67;13.33;;;3.20;55.30;;;;;;5024602;28;20264;-50
2022/12/14 05:56:30;;;;;;;21.00;13.30;;;2.90;55.00;;;;;;5024026;28;20259;-54
2022/12/14 05:58:56;;;;;;;19.87;14.00;;;2.90;55.30;;;;;;5029074;28;20243;-53
2022/12/14 06:01:22;;;;;;;20.20;12.93;;;2.60;55.80;;;;;;5022024;28;20190;-55
2022/12/14 06:03:51;;;;;;;21.63;14.10;;;2.60;56.20;;;;;;5023525;28;20452;-53
2022/12/14 06:06:16;;;;;;;19.20;13.60;;;2.80;56.20;;;;;;5022964;28;20263;-54
2022/12/14 06:08:44;;;;;;;22.57;14.00;;;2.60;56.10;;;;;;5016516;28;20563;-53
2022/12/14 06:11:15;;;;;;;19.73;13.47;;;2.60;56.60;;;;;;5024526;28;20444;-54
2022/12/14 06:13:42;;;;;;;18.70;12.97;;;2.80;56.10;;;;;;5025420;28;20488;-53
2022/12/14 06:16:11;;;;;;;22.50;14.10;;;3.00;56.00;;;;;;5022968;28;20502;-53
2022/12/14 06:18:45;;;;;;;18.93;13.40;;;3.00;55.50;;;;;;5026149;28;20450;-54
2022/12/14 06:21:12;;;;;;;19.20;13.30;;;2.80;55.50;;;;;;5019214;28;20462;-55
2022/12/14 06:23:38;;;;;;;20.97;11.60;;;2.90;55.60;;;;;;5025410;28;20464;-54
2022/12/14 06:26:04;;;;;;;17.37;12.27;;;2.90;58.60;;;;;;5024244;28;21941;-53
2022/12/14 06:28:30;;;;;;;15.63;11.63;;;3.50;59.90;;;;;;5021874;28;21303;-55
2022/12/14 06:30:55;;;;;;;19.40;13.77;;;4.20;59.60;;;;;;5022033;28;20231;-53
2022/12/14 06:33:21;;;;;;;23.17;14.90;;;4.70;56.90;;;;;;5021153;28;20779;-51
2022/12/14 06:35:47;;;;;;;19.03;14.10;;;4.90;54.10;;;;;;5022366;28;20213;-56
2022/12/14 06:38:13;;;;;;;17.30;13.00;;;4.50;51.60;;;;;;5022166;28;20326;-52
2022/12/14 06:40:39;;;;;;;18.10;13.40;;;4.00;52.40;;;;;;5019219;28;20204;-54
2022/12/14 06:43:05;;;;;;;17.97;13.50;;;4.00;53.10;;;;;;5023047;28;21188;-53
2022/12/14 06:45:31;;;;;;;18.03;13.87;;;3.90;53.20;;;;;;5022703;28;20455;-54
2022/12/14 06:47:57;;;;;;;18.90;14.10;;;3.90;53.20;;;;;;5027620;28;20441;-55
2022/12/14 06:50:23;;;;;;;19.60;13.93;;;3.80;53.60;;;;;;5029830;28;20298;-53
2022/12/14 06:52:49;;;;;;;28.63;15.50;;;3.90;54.10;;;;;;5028466;28;20469;-54
2022/12/14 06:55:15;;;;;;;21.37;14.67;;;3.90;54.20;;;;;;5026021;28;20448;-55
2022/12/14 06:57:41;;;;;;;24.37;15.60;;;3.80;54.50;;;;;;5025225;28;20443;-52
2022/12/14 07:00:11;;;;;;;22.23;14.40;;;3.70;55.00;;;;;;5023668;28;20450;-55
2022/12/14 07:02:36;;;;;;;19.00;14.63;;;3.70;55.90;;;;;;5020016;28;20186;-55
2022/12/14 07:05:03;;;;;;;20.80;13.87;;;3.70;55.80;;;;;;5019878;28;21008;-53
2022/12/14 07:07:30;;;;;;;23.83;14.50;;;3.50;56.40;;;;;;5026108;28;20962;-55
2022/12/14 07:09:56;;;;;;;21.13;14.30;;;3.40;57.00;;;;;;5018432;28;20440;-55
2022/12/14 07:12:21;;;;;;;20.50;14.90;;;3.30;57.50;;;;;;5023724;28;20524;-56
2022/12/14 07:14:47;;;;;;;21.13;14.57;;;3.50;57.60;;;;;;5028261;28;20231;-54
2022/12/14 07:17:12;;;;;;;23.20;15.57;;;3.50;57.70;;;;;;5029236;28;20193;-51
2022/12/14 07:19:38;;;;;;;24.57;15.97;;;3.90;57.20;;;;;;5029244;28;20197;-55
2022/12/14 07:22:04;;;;;;;24.93;17.70;;;4.20;56.60;;;;;;5020142;28;20195;-54
2022/12/14 07:24:29;;;;;;;24.70;15.90;;;4.20;56.30;;;;;;5022519;28;20263;-54
2022/12/14 07:26:55;;;;;;;22.00;14.73;;;4.10;56.30;;;;;;5026157;28;20560;-51
2022/12/14 07:29:21;;;;;;;23.93;14.77;;;3.90;56.70;;;;;;5028109;28;20704;-53
2022/12/14 07:31:46;;;;;;;22.93;16.27;;;3.30;57.40;;;;;;5029549;28;20193;-53
2022/12/14 07:34:12;;;;;;;21.17;15.57;;;3.20;58.80;;;;;;5027215;28;20283;-52
2022/12/14 07:36:38;;;;;;;25.03;15.97;;;3.60;58.80;;;;;;5027167;28;20189;-53
2022/12/14 07:39:04;;;;;;;22.50;15.50;;;3.80;58.00;;;;;;5028328;28;20205;-54
2022/12/14 07:41:30;;;;;;;24.13;16.10;;;3.80;57.80;;;;;;5018455;28;20196;-54
2022/12/14 07:43:58;;;;;;;23.43;16.40;;;3.90;57.90;;;;;;5022430;28;20552;-55
2022/12/14 07:46:26;;;;;;;26.63;17.60;;;3.90;58.20;;;;;;5026071;28;20784;-52
2022/12/14 07:48:54;;;;;;;24.43;17.37;;;3.90;57.60;;;;;;5028865;28;21134;-54
2022/12/14 07:51:22;;;;;;;26.13;16.30;;;3.50;58.20;;;;;;5028700;28;20444;-52
2022/12/14 07:53:49;;;;;;;23.63;16.60;;;3.30;59.40;;;;;;5028069;28;21000;-53
2022/12/14 07:56:20;;;;;;;27.33;18.83;;;3.50;59.50;;;;;;5028113;28;20432;-51
2022/12/14 07:58:46;;;;;;;26.20;17.87;;;3.60;59.10;;;;;;5029106;28;20436;-54
2022/12/14 08:01:15;;;;;;;23.37;17.37;;;3.50;59.40;;;;;;5028511;28;20451;-54
2022/12/14 08:03:44;;;;;;;26.77;18.10;;;3.50;59.40;;;;;;5027513;28;20452;-53
2022/12/14 08:06:11;;;;;;;30.87;19.00;;;3.70;59.40;;;;;;5029278;28;20432;-53
2022/12/14 08:08:37;;;;;;;25.87;17.03;;;3.80;58.90;;;;;;5029885;28;20458;-53
2022/12/14 08:11:03;;;;;;;28.63;17.40;;;3.60;59.00;;;;;;5029172;28;20522;-52
2022/12/14 08:13:29;;;;;;;28.83;18.83;;;3.60;59.50;;;;;;5032045;28;20507;-53
2022/12/14 08:15:55;;;;;;;28.30;17.10;;;3.90;59.50;;;;;;5024382;28;22583;-52
2022/12/14 08:18:21;;;;;;;26.80;17.83;;;3.90;58.80;;;;;;5032201;28;20208;-51
2022/12/14 08:20:50;;;;;;;29.70;19.50;;;3.90;58.90;;;;;;5032454;28;20444;-51
2022/12/14 08:23:16;;;;;;;26.47;19.00;;;3.80;58.80;;;;;;5028625;28;20491;-50
2022/12/14 08:25:42;;;;;;;27.77;17.97;;;4.00;58.80;;;;;;5026220;28;20435;-51
2022/12/14 08:28:08;;;;;;;25.73;16.87;;;3.90;58.70;;;;;;5034332;28;20424;-52
2022/12/14 08:30:37;;;;;;;30.33;18.27;;;3.90;58.60;;;;;;5030835;28;20498;-55
2022/12/14 08:33:03;;;;;;;26.90;17.40;;;3.90;58.80;;;;;;5032042;28;20268;-53
2022/12/14 08:35:32;;;;;;;25.87;18.20;;;3.80;58.90;;;;;;5030502;28;20432;-55
2022/12/14 08:37:57;;;;;;;23.93;17.33;;;4.00;58.70;;;;;;5028401;28;20194;-55
2022/12/14 08:40:23;;;;;;;26.97;18.10;;;4.10;58.60;;;;;;5034323;28;20547;-55
2022/12/14 08:42:49;;;;;;;28.40;18.93;;;4.40;58.20;;;;;;5019731;28;20284;-53
2022/12/14 08:45:15;;;;;;;25.30;17.73;;;4.50;57.50;;;;;;5014409;28;20190;-53
2022/12/14 08:47:41;;;;;;;25.20;16.53;;;4.60;57.50;;;;;;5030531;28;20447;-53
2022/12/14 08:50:07;;;;;;;23.70;17.07;;;4.40;57.00;;;;;;5034216;28;21204;-54
2022/12/14 08:52:33;;;;;;;25.47;19.00;;;4.60;57.70;;;;;;5020770;28;20186;-54
2022/12/14 08:54:59;;;;;;;29.27;18.60;;;4.70;57.30;;;;;;5033688;28;20853;-55
2022/12/14 08:57:25;;;;;;;25.83;17.33;;;4.90;57.00;;;;;;5030646;28;20448;-55
2022/12/14 08:59:50;;;;;;;27.37;18.40;;;4.90;56.40;;;;;;5032470;28;20250;-55
2022/12/14 09:02:16;;;;;;;29.87;17.93;;;5.00;56.50;;;;;;5033530;28;20991;-55
2022/12/14 09:04:42;;;;;;;27.80;18.57;;;5.10;56.50;;;;;;5033674;28;20228;-55
2022/12/14 09:07:07;;;;;;;26.37;18.57;;;5.00;56.20;;;;;;5033572;28;20227;-56
2022/12/14 09:09:36;;;;;;;31.20;19.60;;;4.80;56.40;;;;;;5026107;28;20649;-53
2022/12/14 09:12:05;;;;;;;30.50;19.50;;;4.50;57.10;;;;;;5033675;28;20201;-56
2022/12/14 09:17:59;;;;;;;26.47;17.87;;;4.20;58.60;;;;;;5029161;22;20511;-54
2022/12/14 09:20:24;;;;;;;29.80;18.70;;;4.20;59.30;;;;;;4991347;28;20442;-51
2022/12/14 09:22:51;;;;;;;29.27;19.57;;;4.50;59.10;;;;;;4993518;28;20190;-53
2022/12/14 09:25:17;;;;;;;28.57;18.60;;;4.70;58.90;;;;;;4988506;28;20194;-51
2022/12/14 09:27:42;;;;;;;29.50;19.17;;;4.60;59.00;;;;;;4990152;28;20434;-54
2022/12/14 09:30:08;;;;;;;27.40;18.27;;;4.60;59.50;;;;;;4986911;28;20248;-51
2022/12/14 09:32:34;;;;;;;29.77;18.63;;;4.70;59.30;;;;;;4991309;28;20230;-57
2022/12/14 09:34:59;;;;;;;26.47;18.20;;;4.50;59.20;;;;;;4984405;28;20291;-56
2022/12/14 09:37:25;;;;;;;25.93;19.10;;;4.50;59.80;;;;;;4984699;28;20275;-54
2022/12/14 09:39:50;;;;;;;33.60;20.87;;;4.60;60.20;;;;;;4992048;28;20668;-56
2022/12/14 09:42:46;;;;;;;25.37;17.23;;;4.50;60.20;;;;;;4986335;28;20207;-55
2022/12/14 09:45:29;;;;;;;26.27;17.50;;;4.60;60.60;;;;;;4990999;28;20278;-54
2022/12/14 09:48:04;;;;;;;25.93;18.70;;;4.50;61.00;;;;;;4992418;28;20452;-56
2022/12/14 09:50:30;;;;;;;26.63;16.73;;;4.60;60.50;;;;;;4996603;28;20453;-55
2022/12/14 09:52:59;;;;;;;27.43;17.83;;;4.50;60.70;;;;;;4989135;28;20500;-59
2022/12/14 09:55:36;;;;;;;25.60;18.50;;;4.40;61.00;;;;;;4990927;28;20511;-56
2022/12/14 09:58:06;;;;;;;25.50;17.00;;;4.50;60.90;;;;;;4991702;28;20501;-53
2022/12/14 10:00:43;;;;;;;25.20;18.30;;;4.50;60.50;;;;;;4992665;28;20430;-57
2022/12/14 10:03:20;;;;;;;29.63;17.47;;;4.40;61.40;;;;;;4991195;28;20457;-54
2022/12/14 10:05:53;;;;;;;28.60;18.77;;;4.70;61.40;;;;;;4991699;28;20426;-57
2022/12/14 10:08:29;;;;;;;26.50;17.70;;;4.90;60.70;;;;;;4991849;28;20442;-56
2022/12/14 10:10:59;;;;;;;28.47;18.07;;;4.90;60.50;;;;;;4986054;28;20853;-53
2022/12/14 10:14:02;;;;;;;25.33;18.33;;;5.20;60.30;;;;;;4988353;28;20476;-51
2022/12/14 10:16:38;;;;;;;28.90;18.17;;;5.20;59.90;;;;;;4991062;28;20488;-51
2022/12/14 10:19:18;;;;;;;25.87;18.20;;;5.10;59.70;;;;;;4990747;28;20941;-51
2022/12/14 10:21:49;;;;;;;33.90;19.07;;;5.00;60.70;;;;;;4986898;28;20452;-54
2022/12/14 10:24:22;;;;;;;28.33;18.30;;;5.20;60.30;;;;;;4975773;28;20469;-51
2022/12/14 10:26:51;;;;;;;31.10;20.43;;;5.30;60.10;;;;;;4987999;28;20829;-55
2022/12/14 10:29:38;;;;;;;27.40;18.87;;;5.40;59.90;;;;;;4987707;28;20442;-51
2022/12/14 10:32:18;;;;;;;27.83;18.03;;;5.40;59.90;;;;;;4980039;28;21883;-54
2022/12/14 10:34:43;;;;;;;27.70;18.70;;;5.50;59.80;;;;;;4991888;28;20488;-53
2022/12/14 10:37:36;;;;;;;28.40;19.37;;;5.50;60.00;;;;;;4988692;28;20818;-55
2022/12/14 10:40:40;;;;;;;32.00;20.00;;;5.60;60.20;;;;;;4989033;28;20649;-55
2022/12/14 10:43:15;;;;;;;25.27;17.53;;;5.70;60.70;;;;;;4975816;28;20453;-58
2022/12/14 10:46:15;;;;;;;30.30;19.17;;;5.70;60.10;;;;;;4980170;28;20525;-58
2022/12/14 10:49:01;;;;;;;27.50;19.00;;;5.70;60.00;;;;;;4980624;28;20971;-55
2022/12/14 10:52:25;;;;;;;31.43;22.07;;;5.60;60.10;;;;;;4975785;28;20456;-57
2022/12/14 10:55:15;;;;;;;28.00;18.77;;;5.60;60.60;;;;;;4948581;28;20533;-57
2022/12/14 10:57:40;;;;;;;34.90;21.40;;;5.40;60.60;;;;;;4985301;28;20511;-59
2022/12/14 11:00:15;;;;;;;30.13;20.57;;;5.30;61.50;;;;;;4988204;28;20749;-56
2022/12/14 11:02:43;;;;;;;28.87;20.60;;;5.30;61.60;;;;;;4983130;28;20202;-58
2022/12/14 11:05:29;;;;;;;28.07;19.47;;;5.10;61.90;;;;;;4984635;28;20465;-56
2022/12/14 11:07:54;;;;;;;29.53;19.00;;;5.00;62.90;;;;;;4983651;28;20469;-56
2022/12/14 11:10:26;;;;;;;27.23;18.60;;;5.00;63.00;;;;;;4989365;28;20454;-57
2022/12/14 11:13:02;;;;;;;34.07;20.60;;;5.10;63.20;;;;;;4987004;28;20661;-56
2022/12/14 11:15:41;;;;;;;34.63;19.90;;;5.30;62.40;;;;;;4981080;28;20487;-57
2022/12/14 11:18:16;;;;;;;27.30;19.37;;;5.40;62.20;;;;;;4989820;28;21082;-57
2022/12/14 11:20:51;;;;;;;31.27;19.23;;;5.70;61.70;;;;;;4984507;28;20445;-57
2022/12/14 11:23:19;;;;;;;29.33;18.53;;;5.70;61.10;;;;;;4988619;28;20453;-56
2022/12/14 11:25:48;;;;;;;29.20;19.70;;;5.70;61.00;;;;;;4986406;28;20962;-59
2022/12/14 11:28:35;;;;;;;29.33;18.43;;;5.70;60.80;;;;;;4984148;28;20496;-56
2022/12/14 11:31:05;;;;;;;30.90;19.30;;;5.80;60.70;;;;;;4988603;28;20557;-58
2022/12/14 11:33:39;;;;;;;29.57;19.47;;;5.90;60.50;;;;;;4988439;28;20492;-57
2022/12/14 11:36:07;;;;;;;30.73;18.23;;;5.90;60.20;;;;;;4987638;28;20442;-57
2022/12/14 11:38:33;;;;;;;34.07;20.43;;;5.90;60.00;;;;;;4985117;28;20499;-57
2022/12/14 11:41:01;;;;;;;30.03;18.07;;;6.00;59.90;;;;;;4983654;28;20442;-58
2022/12/14 11:43:33;;;;;;;31.70;19.23;;;6.10;59.90;;;;;;4984477;28;20571;-56
2022/12/14 11:45:58;;;;;;;30.70;21.00;;;6.20;59.90;;;;;;4984607;28;20450;-57
2022/12/14 11:48:26;;;;;;;30.97;20.93;;;6.20;59.90;;;;;;4987063;28;20507;-57
2022/12/14 11:51:07;;;;;;;28.10;19.60;;;6.30;59.90;;;;;;4992570;28;20705;-58
2022/12/14 11:53:33;;;;;;;28.70;20.03;;;6.40;59.70;;;;;;4992463;28;20480;-58
2022/12/14 11:56:03;;;;;;;29.07;20.30;;;6.50;59.20;;;;;;4993145;28;20445;-58
2022/12/14 11:58:44;;;;;;;30.47;19.80;;;6.50;59.20;;;;;;4995382;28;20210;-58
2022/12/14 12:01:22;;;;;;;26.70;18.77;;;6.40;59.00;;;;;;4992680;28;20448;-58
2022/12/14 12:03:51;;;;;;;33.20;20.90;;;6.50;59.10;;;;;;4991282;28;20453;-58
2022/12/14 12:06:23;;;;;;;31.83;20.73;;;6.50;59.00;;;;;;4993236;28;20472;-58
2022/12/14 12:08:55;;;;;;;30.03;19.80;;;6.60;58.80;;;;;;4994029;28;20444;-58
2022/12/14 12:11:25;;;;;;;30.10;20.60;;;6.70;58.70;;;;;;4989030;28;20433;-58
2022/12/14 12:13:56;;;;;;;42.60;23.60;;;6.70;58.60;;;;;;4993936;28;21040;-58
2022/12/14 12:16:25;;;;;;;35.47;22.60;;;6.80;58.30;;;;;;4990795;28;20485;-58
2022/12/14 12:19:09;;;;;;;31.57;20.57;;;6.80;58.20;;;;;;5000000;28;20443;-58
2022/12/14 12:21:41;;;;;;;30.10;20.97;;;6.90;58.60;;;;;;4989487;28;20821;-58
2022/12/14 12:24:13;;;;;;;29.70;20.00;;;7.00;58.50;;;;;;4992742;28;20450;-58
2022/12/14 12:27:10;;;;;;;25.93;18.80;;;7.00;58.50;;;;;;4992814;28;20457;-58
2022/12/14 12:29:49;;;;;;;31.10;20.17;;;7.00;58.50;;;;;;4989187;28;20464;-58
2022/12/14 12:32:25;;;;;;;26.63;18.10;;;7.00;58.30;;;;;;4991704;28;20442;-58
2022/12/14 12:34:56;;;;;;;28.60;19.37;;;7.00;58.10;;;;;;4989488;28;20537;-58
2022/12/14 12:37:33;;;;;;;24.50;18.07;;;7.00;58.20;;;;;;4989520;28;20468;-58
2022/12/14 12:40:36;;;;;;;27.43;19.00;;;7.10;58.10;;;;;;4989620;28;20449;-58
2022/12/14 12:43:32;;;;;;;28.47;19.00;;;7.10;57.90;;;;;;4990335;28;20532;-58
2022/12/14 12:46:12;;;;;;;30.03;20.17;;;7.20;57.90;;;;;;4991662;28;20515;-58
2022/12/14 12:49:02;;;;;;;29.77;21.80;;;7.20;57.60;;;;;;4989602;28;20441;-57
2022/12/14 12:51:42;;;;;;;32.13;23.13;;;7.10;58.00;;;;;;4989250;28;20453;-58
2022/12/14 12:54:16;;;;;;;32.67;20.67;;;7.10;58.20;;;;;;4988006;28;20527;-57
2022/12/14 12:56:44;;;;;;;31.20;22.43;;;7.10;58.00;;;;;;4988584;28;20445;-57
2022/12/14 12:59:20;;;;;;;29.80;21.10;;;7.10;58.00;;;;;;4990116;28;20459;-57
2022/12/14 13:01:49;;;;;;;31.17;22.13;;;7.10;57.90;;;;;;4990234;28;20502;-58
2022/12/14 13:04:29;;;;;;;30.17;21.60;;;7.00;58.00;;;;;;4992193;28;20999;-58
2022/12/14 13:07:02;;;;;;;30.77;22.50;;;6.90;58.10;;;;;;4986851;28;20933;-57
2022/12/14 13:09:34;;;;;;;36.47;25.50;;;6.80;58.30;;;;;;4986428;28;20466;-58
2022/12/14 13:12:02;;;;;;;37.67;26.90;;;6.80;58.40;;;;;;4991449;28;20449;-57
2022/12/14 13:14:33;;;;;;;30.87;24.20;;;6.80;58.40;;;;;;4991755;28;20561;-57
2022/12/14 13:17:02;;;;;;;36.80;25.30;;;6.80;58.20;;;;;;4988226;28;20477;-58
2022/12/14 13:19:43;;;;;;;36.33;24.40;;;6.80;58.20;;;;;;4991885;28;20507;-58